Itanagar, India
Current Conditions -  °F | °C
As of 11:50 AM on Tuesday 21 Oct 2014 (Local Time) from VGHS Reporting Station
Haze Haze  
Wind Chill: 88°   Ceiling: Unl
Heat Index: 90°   Visibility: 3mi
Dew Point: 66°   Wind: 6mph
Humidity: 49%   Direction: 60°ENE
Pressure: 29.91"   Gusts: NA
Location:  27.13°N, 93.62°E
Report Text: VGHS 210650Z 06005KT 5000 HZ FEW120 31/19 Q1013 NOSIG
Loading
Personal Weather Stations






























Interactive Weather Map
Tropical Storm Tracking
New forecast layout! Learn more

10-Day Weather Forecast

Advertisements
Track Severe Weather on mobile